sensor_id;sensor_type;location;lat;lon;timestamp;pressure;altitude;pressure_sealevel;temperature;humidity
49943;BME280;36011;53.362;58.948;2024-02-26T00:00:49;98897.34;;;-7.76;51.18
49943;BME280;36011;53.362;58.948;2024-02-26T00:03:53;98903.97;;;-7.81;51.24
49943;BME280;36011;53.362;58.948;2024-02-26T00:07:03;98889.63;;;-7.98;51.04
49943;BME280;36011;53.362;58.948;2024-02-26T00:10:07;98899.84;;;-7.98;51.42
49943;BME280;36011;53.362;58.948;2024-02-26T00:13:11;98867.38;;;-8.22;51.31
49943;BME280;36011;53.362;58.948;2024-02-26T00:16:15;98892.75;;;-8.05;51.71
49943;BME280;36011;53.362;58.948;2024-02-26T00:19:19;98899.47;;;-8.07;51.43
49943;BME280;36011;53.362;58.948;2024-02-26T00:22:23;98899.34;;;-8.10;51.47
49943;BME280;36011;53.362;58.948;2024-02-26T00:25:24;98900.84;;;-8.16;51.94
49943;BME280;36011;53.362;58.948;2024-02-26T00:28:28;98902.47;;;-8.18;52.05
49943;BME280;36011;53.362;58.948;2024-02-26T00:31:33;98903.22;;;-8.20;51.74
49943;BME280;36011;53.362;58.948;2024-02-26T00:34:37;98863.91;;;-8.45;51.70
49943;BME280;36011;53.362;58.948;2024-02-26T00:37:38;98895.91;;;-8.32;51.48
49943;BME280;36011;53.362;58.948;2024-02-26T00:40:45;98906.56;;;-8.42;51.80
49943;BME280;36011;53.362;58.948;2024-02-26T00:43:52;98898.41;;;-8.54;51.75
49943;BME280;36011;53.362;58.948;2024-02-26T00:46:56;98900.66;;;-8.61;51.86
49943;BME280;36011;53.362;58.948;2024-02-26T00:50:03;98900.53;;;-8.64;52.01
49943;BME280;36011;53.362;58.948;2024-02-26T00:53:10;98907.41;;;-8.63;51.80
49943;BME280;36011;53.362;58.948;2024-02-26T00:56:16;98907.41;;;-8.63;51.70
49943;BME280;36011;53.362;58.948;2024-02-26T00:59:20;98902.91;;;-8.68;51.67
49943;BME280;36011;53.362;58.948;2024-02-26T01:02:22;98901.88;;;-8.72;51.46
49943;BME280;36011;53.362;58.948;2024-02-26T01:05:28;98908.53;;;-8.95;50.97
49943;BME280;36011;53.362;58.948;2024-02-26T01:08:29;98905.53;;;-9.06;51.18
49943;BME280;36011;53.362;58.948;2024-02-26T01:11:33;98894.50;;;-9.24;51.39
49943;BME280;36011;53.362;58.948;2024-02-26T01:14:37;98910.16;;;-9.16;51.53
49943;BME280;36011;53.362;58.948;2024-02-26T01:17:41;98906.03;;;-9.13;51.55
49943;BME280;36011;53.362;58.948;2024-02-26T01:20:47;98896.34;;;-9.20;51.58
49943;BME280;36011;53.362;58.948;2024-02-26T01:23:54;98898.13;;;-9.19;51.57
49943;BME280;36011;53.362;58.948;2024-02-26T01:26:55;98908.19;;;-9.22;51.44
49943;BME280;36011;53.362;58.948;2024-02-26T01:30:00;98915.47;;;-9.30;51.36
49943;BME280;36011;53.362;58.948;2024-02-26T01:33:04;98913.66;;;-9.32;51.41
49943;BME280;36011;53.362;58.948;2024-02-26T01:36:08;98897.41;;;-9.34;51.48
49943;BME280;36011;53.362;58.948;2024-02-26T01:39:09;98905.56;;;-9.23;51.66
49943;BME280;36011;53.362;58.948;2024-02-26T01:42:19;98904.56;;;-9.27;51.39
49943;BME280;36011;53.362;58.948;2024-02-26T01:45:23;98904.13;;;-9.36;51.22
49943;BME280;36011;53.362;58.948;2024-02-26T01:48:32;98902.97;;;-9.43;51.64
49943;BME280;36011;53.362;58.948;2024-02-26T01:51:35;98911.19;;;-9.49;51.42
49943;BME280;36011;53.362;58.948;2024-02-26T01:54:42;98910.88;;;-9.56;51.39
49943;BME280;36011;53.362;58.948;2024-02-26T01:57:51;98914.63;;;-9.66;51.54
49943;BME280;36011;53.362;58.948;2024-02-26T02:00:53;98914.63;;;-9.66;51.64
49943;BME280;36011;53.362;58.948;2024-02-26T02:03:59;98906.78;;;-9.70;51.91
49943;BME280;36011;53.362;58.948;2024-02-26T02:07:04;98917.91;;;-9.68;51.57
49943;BME280;36011;53.362;58.948;2024-02-26T02:10:08;98904.00;;;-9.75;51.60
49943;BME280;36011;53.362;58.948;2024-02-26T02:13:13;98908.81;;;-9.81;51.71
49943;BME280;36011;53.362;58.948;2024-02-26T02:16:17;98911.13;;;-9.86;51.80
49943;BME280;36011;53.362;58.948;2024-02-26T02:19:18;98908.81;;;-9.81;51.88
49943;BME280;36011;53.362;58.948;2024-02-26T02:22:19;98908.81;;;-9.81;51.93
49943;BME280;36011;53.362;58.948;2024-02-26T02:25:21;98916.97;;;-9.88;51.96
49943;BME280;36011;53.362;58.948;2024-02-26T02:28:23;98919.50;;;-9.88;51.58
49943;BME280;36011;53.362;58.948;2024-02-26T02:31:29;98917.53;;;-9.94;51.96
49943;BME280;36011;53.362;58.948;2024-02-26T02:34:31;98916.38;;;-10.01;51.94
49943;BME280;36011;53.362;58.948;2024-02-26T02:37:38;98904.94;;;-10.09;52.00
49943;BME280;36011;53.362;58.948;2024-02-26T02:40:42;98903.69;;;-10.17;51.83
49943;BME280;36011;53.362;58.948;2024-02-26T02:43:45;98910.91;;;-10.08;51.84
49943;BME280;36011;53.362;58.948;2024-02-26T02:46:47;98921.19;;;-10.07;52.05
49943;BME280;36011;53.362;58.948;2024-02-26T02:49:49;98910.28;;;-10.04;52.29
49943;BME280;36011;53.362;58.948;2024-02-26T02:52:53;98915.41;;;-10.03;52.87
49943;BME280;36011;53.362;58.948;2024-02-26T02:55:55;98916.66;;;-9.95;52.39
49943;BME280;36011;53.362;58.948;2024-02-26T02:59:04;98920.16;;;-9.92;52.56
49943;BME280;36011;53.362;58.948;2024-02-26T03:02:11;98914.78;;;-9.99;52.46
49943;BME280;36011;53.362;58.948;2024-02-26T03:05:18;98919.06;;;-9.98;52.24
49943;BME280;36011;53.362;58.948;2024-02-26T03:08:22;98917.00;;;-10.05;52.60
49943;BME280;36011;53.362;58.948;2024-02-26T03:11:25;98929.59;;;-10.08;52.17
49943;BME280;36011;53.362;58.948;2024-02-26T03:14:29;98920.06;;;-10.12;52.20
49943;BME280;36011;53.362;58.948;2024-02-26T03:17:33;98921.81;;;-10.11;52.33
49943;BME280;36011;53.362;58.948;2024-02-26T03:20:36;98920.16;;;-10.10;52.50
49943;BME280;36011;53.362;58.948;2024-02-26T03:23:40;98924.66;;;-10.05;51.96
49943;BME280;36011;53.362;58.948;2024-02-26T03:26:48;98917.66;;;-10.09;51.94
49943;BME280;36011;53.362;58.948;2024-02-26T03:29:54;98929.16;;;-9.99;51.74
49943;BME280;36011;53.362;58.948;2024-02-26T03:32:55;98937.63;;;-10.00;51.42
49943;BME280;36011;53.362;58.948;2024-02-26T03:35:59;98938.34;;;-10.03;51.41
49943;BME280;36011;53.362;58.948;2024-02-26T03:39:01;98934.34;;;-9.98;51.20
49943;BME280;36011;53.362;58.948;2024-02-26T03:42:11;98935.50;;;-9.91;51.19
49943;BME280;36011;53.362;58.948;2024-02-26T03:45:18;98918.16;;;-9.82;51.04
49943;BME280;36011;53.362;58.948;2024-02-26T03:48:19;98933.13;;;-9.70;50.90
49943;BME280;36011;53.362;58.948;2024-02-26T03:51:25;98935.31;;;-9.60;50.88
49943;BME280;36011;53.362;58.948;2024-02-26T03:54:34;98929.63;;;-9.54;50.49
49943;BME280;36011;53.362;58.948;2024-02-26T03:57:41;98926.50;;;-9.49;50.62
49943;BME280;36011;53.362;58.948;2024-02-26T04:00:45;98917.09;;;-9.50;50.43
49943;BME280;36011;53.362;58.948;2024-02-26T04:03:51;98938.91;;;-9.19;50.28
49943;BME280;36011;53.362;58.948;2024-02-26T04:06:58;98936.28;;;-9.02;50.38
49943;BME280;36011;53.362;58.948;2024-02-26T04:09:59;98945.56;;;-8.85;49.82
49943;BME280;36011;53.362;58.948;2024-02-26T04:13:03;98949.59;;;-8.71;49.66
49943;BME280;36011;53.362;58.948;2024-02-26T04:16:05;98950.25;;;-8.55;49.71
49943;BME280;36011;53.362;58.948;2024-02-26T04:19:12;98950.50;;;-8.49;49.16
49943;BME280;36011;53.362;58.948;2024-02-26T04:22:13;98949.25;;;-8.38;49.21
49943;BME280;36011;53.362;58.948;2024-02-26T04:25:14;98942.19;;;-8.24;49.05
49943;BME280;36011;53.362;58.948;2024-02-26T04:28:16;98948.69;;;-8.11;48.88
49943;BME280;36011;53.362;58.948;2024-02-26T04:31:20;98950.94;;;-7.98;48.96
49943;BME280;36011;53.362;58.948;2024-02-26T04:34:24;98961.81;;;-7.83;49.13
49943;BME280;36011;53.362;58.948;2024-02-26T04:37:29;98964.84;;;-7.71;48.48
49943;BME280;36011;53.362;58.948;2024-02-26T04:40:31;98970.31;;;-7.61;48.77
49943;BME280;36011;53.362;58.948;2024-02-26T04:43:36;98966.34;;;-7.55;48.71
49943;BME280;36011;53.362;58.948;2024-02-26T04:46:42;98973.88;;;-7.37;48.79
49943;BME280;36011;53.362;58.948;2024-02-26T04:49:46;98948.28;;;-7.37;48.57
49943;BME280;36011;53.362;58.948;2024-02-26T04:52:47;98964.59;;;-7.12;49.06
49943;BME280;36011;53.362;58.948;2024-02-26T04:55:48;98974.53;;;-6.97;48.97
49943;BME280;36011;53.362;58.948;2024-02-26T04:58:53;98972.63;;;-6.81;48.99
49943;BME280;36011;53.362;58.948;2024-02-26T05:01:56;98972.19;;;-6.69;48.22
49943;BME280;36011;53.362;58.948;2024-02-26T05:04:58;98971.75;;;-6.57;48.72
49943;BME280;36011;53.362;58.948;2024-02-26T05:08:06;98975.69;;;-6.43;48.49
49943;BME280;36011;53.362;58.948;2024-02-26T05:11:13;98966.88;;;-6.27;48.08
49943;BME280;36011;53.362;58.948;2024-02-26T05:14:21;98965.63;;;-6.14;48.25
49943;BME280;36011;53.362;58.948;2024-02-26T05:17:28;98952.50;;;-5.98;48.54
49943;BME280;36011;53.362;58.948;2024-02-26T05:20:34;98961.94;;;-5.70;48.82
49943;BME280;36011;53.362;58.948;2024-02-26T05:23:41;98964.28;;;-5.50;48.44
49943;BME280;36011;53.362;58.948;2024-02-26T05:26:46;98958.06;;;-5.31;48.11
49943;BME280;36011;53.362;58.948;2024-02-26T05:29:53;98964.75;;;-5.08;47.67
49943;BME280;36011;53.362;58.948;2024-02-26T05:32:57;98966.22;;;-4.87;47.49
49943;BME280;36011;53.362;58.948;2024-02-26T05:36:01;98955.66;;;-4.68;47.09
49943;BME280;36011;53.362;58.948;2024-02-26T05:39:05;98957.84;;;-4.52;47.15
49943;BME280;36011;53.362;58.948;2024-02-26T05:42:10;98958.53;;;-4.27;47.14
49943;BME280;36011;53.362;58.948;2024-02-26T05:45:15;98956.66;;;-3.68;46.38
49943;BME280;36011;53.362;58.948;2024-02-26T05:48:19;98956.53;;;1.37;40.17
49943;BME280;36011;53.362;58.948;2024-02-26T05:51:25;98965.03;;;7.69;31.85
49943;BME280;36011;53.362;58.948;2024-02-26T05:54:31;98964.25;;;12.90;26.44
49943;BME280;36011;53.362;58.948;2024-02-26T05:57:38;98959.00;;;17.34;21.59
49943;BME280;36011;53.362;58.948;2024-02-26T06:00:44;98953.69;;;21.07;18.63
49943;BME280;36011;53.362;58.948;2024-02-26T06:03:54;98957.13;;;23.88;16.34
49943;BME280;36011;53.362;58.948;2024-02-26T06:06:59;98965.34;;;26.05;14.97
49943;BME280;36011;53.362;58.948;2024-02-26T06:10:03;98962.16;;;27.91;13.17
49943;BME280;36011;53.362;58.948;2024-02-26T06:13:10;98955.28;;;28.65;11.38
49943;BME280;36011;53.362;58.948;2024-02-26T06:16:14;98955.78;;;29.28;11.55
49943;BME280;36011;53.362;58.948;2024-02-26T06:19:18;98952.72;;;29.88;10.41
49943;BME280;36011;53.362;58.948;2024-02-26T06:22:26;98962.03;;;30.66;10.24
49943;BME280;36011;53.362;58.948;2024-02-26T06:25:27;98959.28;;;31.37;10.13
49943;BME280;36011;53.362;58.948;2024-02-26T06:28:28;98957.13;;;31.85;8.84
49943;BME280;36011;53.362;58.948;2024-02-26T06:31:37;98953.03;;;31.89;8.51
49943;BME280;36011;53.362;58.948;2024-02-26T06:34:41;98943.69;;;31.68;8.41
49943;BME280;36011;53.362;58.948;2024-02-26T06:37:48;98935.31;;;31.55;9.02
49943;BME280;36011;53.362;58.948;2024-02-26T06:40:51;98950.75;;;31.77;8.15
49943;BME280;36011;53.362;58.948;2024-02-26T06:43:57;98945.97;;;32.47;7.58
49943;BME280;36011;53.362;58.948;2024-02-26T06:47:01;98949.63;;;33.05;7.80
49943;BME280;36011;53.362;58.948;2024-02-26T06:50:03;98953.06;;;33.79;7.53
49943;BME280;36011;53.362;58.948;2024-02-26T06:53:10;98943.28;;;34.54;7.26
49943;BME280;36011;53.362;58.948;2024-02-26T06:56:17;98951.94;;;35.12;6.91
49943;BME280;36011;53.362;58.948;2024-02-26T06:59:25;98954.13;;;35.37;6.93
49943;BME280;36011;53.362;58.948;2024-02-26T07:02:32;98934.53;;;36.06;6.84
49943;BME280;36011;53.362;58.948;2024-02-26T07:05:35;98938.94;;;36.20;6.51
49943;BME280;36011;53.362;58.948;2024-02-26T07:08:38;98930.91;;;36.26;6.48
49943;BME280;36011;53.362;58.948;2024-02-26T07:11:40;98941.34;;;36.69;6.66
49943;BME280;36011;53.362;58.948;2024-02-26T07:14:48;98937.13;;;37.18;6.46
49943;BME280;36011;53.362;58.948;2024-02-26T07:17:55;98941.72;;;37.56;6.03
49943;BME280;36011;53.362;58.948;2024-02-26T07:21:02;98931.47;;;38.13;5.75
49943;BME280;36011;53.362;58.948;2024-02-26T07:24:03;98934.56;;;38.41;6.07
49943;BME280;36011;53.362;58.948;2024-02-26T07:27:07;98932.75;;;38.54;5.91
49943;BME280;36011;53.362;58.948;2024-02-26T07:30:11;98933.19;;;38.88;5.48
49943;BME280;36011;53.362;58.948;2024-02-26T07:33:17;98938.91;;;39.04;5.49
49943;BME280;36011;53.362;58.948;2024-02-26T07:36:22;98929.72;;;39.53;5.66
49943;BME280;36011;53.362;58.948;2024-02-26T07:39:26;98934.16;;;39.65;5.70
49943;BME280;36011;53.362;58.948;2024-02-26T07:42:32;98940.66;;;39.94;5.15
49943;BME280;36011;53.362;58.948;2024-02-26T07:45:40;98938.97;;;40.17;5.33
49943;BME280;36011;53.362;58.948;2024-02-26T07:48:48;98933.69;;;40.39;5.23
49943;BME280;36011;53.362;58.948;2024-02-26T07:52:12;98935.47;;;40.69;5.00
49943;BME280;36011;53.362;58.948;2024-02-26T07:55:19;98933.59;;;40.86;5.11
49943;BME280;36011;53.362;58.948;2024-02-26T07:58:28;98939.13;;;40.86;4.86
49943;BME280;36011;53.362;58.948;2024-02-26T08:01:30;98931.56;;;40.81;4.77
49943;BME280;36011;53.362;58.948;2024-02-26T08:04:36;98924.91;;;40.66;4.99
49943;BME280;36011;53.362;58.948;2024-02-26T08:07:38;98926.81;;;40.53;5.02
49943;BME280;36011;53.362;58.948;2024-02-26T08:10:51;98932.72;;;39.74;5.06
49943;BME280;36011;53.362;58.948;2024-02-26T08:13:55;98927.22;;;38.91;5.96
49943;BME280;36011;53.362;58.948;2024-02-26T08:17:02;98915.75;;;38.94;5.44
49943;BME280;36011;53.362;58.948;2024-02-26T08:20:04;98931.31;;;39.30;6.19
49943;BME280;36011;53.362;58.948;2024-02-26T08:23:11;98913.41;;;39.09;5.33
49943;BME280;36011;53.362;58.948;2024-02-26T08:26:13;98921.16;;;39.31;5.36
49943;BME280;36011;53.362;58.948;2024-02-26T08:29:17;98911.88;;;39.55;5.08
49943;BME280;36011;53.362;58.948;2024-02-26T08:32:25;98914.72;;;39.60;5.21
49943;BME280;36011;53.362;58.948;2024-02-26T08:35:31;98911.91;;;39.79;4.95
49943;BME280;36011;53.362;58.948;2024-02-26T08:38:40;98906.13;;;40.15;4.77
49943;BME280;36011;53.362;58.948;2024-02-26T08:41:47;98909.47;;;40.41;4.81
49943;BME280;36011;53.362;58.948;2024-02-26T08:44:51;98898.44;;;40.41;4.65
49943;BME280;36011;53.362;58.948;2024-02-26T08:47:58;98904.84;;;40.58;4.43
49943;BME280;36011;53.362;58.948;2024-02-26T08:51:03;98898.88;;;40.90;4.48
49943;BME280;36011;53.362;58.948;2024-02-26T08:54:09;98896.59;;;40.87;4.56
49943;BME280;36011;53.362;58.948;2024-02-26T08:57:17;98896.28;;;40.83;4.77
49943;BME280;36011;53.362;58.948;2024-02-26T09:00:18;98895.53;;;40.88;4.64
49943;BME280;36011;53.362;58.948;2024-02-26T09:03:23;98896.91;;;40.74;4.36
49943;BME280;36011;53.362;58.948;2024-02-26T09:06:28;98896.94;;;40.91;4.38
49943;BME280;36011;53.362;58.948;2024-02-26T09:09:33;98901.25;;;40.70;4.90
49943;BME280;36011;53.362;58.948;2024-02-26T09:12:40;98895.22;;;40.32;4.63
49943;BME280;36011;53.362;58.948;2024-02-26T09:15:47;98888.38;;;40.11;4.66
49943;BME280;36011;53.362;58.948;2024-02-26T09:18:54;98888.56;;;39.27;5.29
49943;BME280;36011;53.362;58.948;2024-02-26T09:21:58;98878.59;;;38.84;5.69
49943;BME280;36011;53.362;58.948;2024-02-26T09:25:00;98887.97;;;38.47;6.04
49943;BME280;36011;53.362;58.948;2024-02-26T09:28:04;98883.31;;;38.47;4.94
49943;BME280;36011;53.362;58.948;2024-02-26T09:31:09;98871.72;;;37.33;4.95
49943;BME280;36011;53.362;58.948;2024-02-26T09:34:14;98872.47;;;37.22;4.75
49943;BME280;36011;53.362;58.948;2024-02-26T09:37:16;98887.16;;;39.06;4.68
49943;BME280;36011;53.362;58.948;2024-02-26T09:40:17;98879.34;;;37.63;4.94
49943;BME280;36011;53.362;58.948;2024-02-26T09:43:24;98878.13;;;37.27;4.94
49943;BME280;36011;53.362;58.948;2024-02-26T09:46:31;98872.91;;;37.44;4.71
49943;BME280;36011;53.362;58.948;2024-02-26T09:49:35;98864.91;;;37.42;5.09
49943;BME280;36011;53.362;58.948;2024-02-26T09:52:38;98873.97;;;37.68;5.39
49943;BME280;36011;53.362;58.948;2024-02-26T09:55:43;98876.06;;;37.47;4.86
49943;BME280;36011;53.362;58.948;2024-02-26T09:58:53;98868.19;;;37.01;5.28
49943;BME280;36011;53.362;58.948;2024-02-26T10:01:58;98862.81;;;36.74;4.71
49943;BME280;36011;53.362;58.948;2024-02-26T10:05:03;98868.78;;;36.64;5.03
49943;BME280;36011;53.362;58.948;2024-02-26T10:08:09;98861.09;;;36.41;4.98
49943;BME280;36011;53.362;58.948;2024-02-26T10:11:15;98862.91;;;35.96;5.08
49943;BME280;36011;53.362;58.948;2024-02-26T10:14:17;98860.59;;;35.80;4.88
49943;BME280;36011;53.362;58.948;2024-02-26T10:17:21;98864.41;;;35.72;4.92
49943;BME280;36011;53.362;58.948;2024-02-26T10:20:28;98860.41;;;35.61;5.50
49943;BME280;36011;53.362;58.948;2024-02-26T10:23:32;98864.81;;;35.36;5.14
49943;BME280;36011;53.362;58.948;2024-02-26T10:26:33;98863.53;;;35.05;5.04
49943;BME280;36011;53.362;58.948;2024-02-26T10:29:35;98861.28;;;34.54;5.19
49943;BME280;36011;53.362;58.948;2024-02-26T10:32:39;98862.19;;;33.91;5.48
49943;BME280;36011;53.362;58.948;2024-02-26T10:35:48;98861.34;;;33.35;5.56
49943;BME280;36011;53.362;58.948;2024-02-26T10:38:50;98856.91;;;33.05;6.01
49943;BME280;36011;53.362;58.948;2024-02-26T10:41:54;98852.78;;;32.73;5.83
49943;BME280;36011;53.362;58.948;2024-02-26T10:44:58;98867.13;;;32.46;5.89
49943;BME280;36011;53.362;58.948;2024-02-26T10:48:00;98860.19;;;32.28;6.37
49943;BME280;36011;53.362;58.948;2024-02-26T10:51:04;98859.94;;;32.08;5.53
49943;BME280;36011;53.362;58.948;2024-02-26T10:54:15;98856.03;;;31.73;6.30
49943;BME280;36011;53.362;58.948;2024-02-26T10:57:17;98851.41;;;31.44;6.49
49943;BME280;36011;53.362;58.948;2024-02-26T11:00:24;98851.31;;;31.14;6.37
49943;BME280;36011;53.362;58.948;2024-02-26T11:03:30;98853.25;;;30.74;6.10
49943;BME280;36011;53.362;58.948;2024-02-26T11:06:36;98843.16;;;31.37;5.81
49943;BME280;36011;53.362;58.948;2024-02-26T11:09:40;98838.53;;;31.00;6.10
49943;BME280;36011;53.362;58.948;2024-02-26T11:12:51;98836.66;;;30.46;6.00
49943;BME280;36011;53.362;58.948;2024-02-26T11:15:56;98833.66;;;29.85;7.01
49943;BME280;36011;53.362;58.948;2024-02-26T11:19:02;98837.81;;;29.16;7.00
49943;BME280;36011;53.362;58.948;2024-02-26T11:22:07;98831.19;;;28.77;6.85
49943;BME280;36011;53.362;58.948;2024-02-26T11:25:16;98834.91;;;28.17;7.02
49943;BME280;36011;53.362;58.948;2024-02-26T11:28:21;98828.56;;;27.40;7.40
49943;BME280;36011;53.362;58.948;2024-02-26T11:31:29;98821.84;;;26.19;7.79
49943;BME280;36011;53.362;58.948;2024-02-26T11:34:32;98829.41;;;25.02;7.86
49943;BME280;36011;53.362;58.948;2024-02-26T11:37:34;98814.69;;;24.57;8.26
49943;BME280;36011;53.362;58.948;2024-02-26T11:40:39;98826.72;;;24.92;8.05
49943;BME280;36011;53.362;58.948;2024-02-26T11:47:14;98827.00;;;25.08;7.47
49943;BME280;36011;53.362;58.948;2024-02-26T11:50:34;98822.50;;;24.80;7.90
49943;BME280;36011;53.362;58.948;2024-02-26T11:53:47;98818.69;;;24.13;7.74
49943;BME280;36011;53.362;58.948;2024-02-26T11:56:51;98817.88;;;23.61;8.94
49943;BME280;36011;53.362;58.948;2024-02-26T12:03:20;98816.34;;;22.74;8.61
49943;BME280;36011;53.362;58.948;2024-02-26T12:06:24;98819.09;;;22.19;8.72
49943;BME280;36011;53.362;58.948;2024-02-26T12:09:38;98835.19;;;21.52;8.97
49943;BME280;36011;53.362;58.948;2024-02-26T12:12:47;98830.69;;;20.47;9.73
49943;BME280;36011;53.362;58.948;2024-02-26T12:16:03;98835.34;;;19.44;10.29
49943;BME280;36011;53.362;58.948;2024-02-26T12:19:08;98837.47;;;19.13;10.24
49943;BME280;36011;53.362;58.948;2024-02-26T12:22:13;98839.16;;;18.89;10.73
49943;BME280;36011;53.362;58.948;2024-02-26T12:25:15;98837.34;;;18.62;10.90
49943;BME280;36011;53.362;58.948;2024-02-26T12:28:19;98839.75;;;18.25;11.53
49943;BME280;36011;53.362;58.948;2024-02-26T12:31:20;98836.34;;;17.82;12.07
49943;BME280;36011;53.362;58.948;2024-02-26T12:34:27;98842.47;;;17.25;11.89
49943;BME280;36011;53.362;58.948;2024-02-26T12:37:32;98836.84;;;16.55;12.26
49943;BME280;36011;53.362;58.948;2024-02-26T12:40:33;98835.53;;;16.00;12.50
49943;BME280;36011;53.362;58.948;2024-02-26T12:43:38;98833.00;;;15.32;12.99
49943;BME280;36011;53.362;58.948;2024-02-26T12:46:44;98830.16;;;14.67;13.29
49943;BME280;36011;53.362;58.948;2024-02-26T12:49:50;98844.03;;;14.17;13.66
49943;BME280;36011;53.362;58.948;2024-02-26T12:52:54;98844.47;;;13.70;14.54
49943;BME280;36011;53.362;58.948;2024-02-26T12:55:56;98844.72;;;13.06;14.83
49943;BME280;36011;53.362;58.948;2024-02-26T12:59:01;98840.66;;;11.90;15.69
49943;BME280;36011;53.362;58.948;2024-02-26T13:02:03;98837.56;;;10.55;17.53
49943;BME280;36011;53.362;58.948;2024-02-26T13:05:08;98834.88;;;9.42;18.63
49943;BME280;36011;53.362;58.948;2024-02-26T13:08:20;98832.13;;;8.50;20.12
49943;BME280;36011;53.362;58.948;2024-02-26T13:11:26;98835.69;;;7.72;20.64
49943;BME280;36011;53.362;58.948;2024-02-26T13:14:32;98849.19;;;7.11;21.07
49943;BME280;36011;53.362;58.948;2024-02-26T13:17:39;98845.00;;;6.53;21.66
49943;BME280;36011;53.362;58.948;2024-02-26T13:20:43;98854.44;;;6.09;22.12
49943;BME280;36011;53.362;58.948;2024-02-26T13:23:52;98855.91;;;5.63;24.62
49943;BME280;36011;53.362;58.948;2024-02-26T13:27:01;98859.09;;;5.16;24.82
49943;BME280;36011;53.362;58.948;2024-02-26T13:30:05;98866.50;;;4.74;24.41
49943;BME280;36011;53.362;58.948;2024-02-26T13:33:15;98865.16;;;4.28;24.83
49943;BME280;36011;53.362;58.948;2024-02-26T13:36:16;98874.09;;;3.89;24.65
49943;BME280;36011;53.362;58.948;2024-02-26T13:39:24;98860.44;;;3.52;25.87
49943;BME280;36011;53.362;58.948;2024-02-26T13:42:30;98863.19;;;3.15;25.97
49943;BME280;36011;53.362;58.948;2024-02-26T13:45:40;98875.38;;;2.91;26.96
49943;BME280;36011;53.362;58.948;2024-02-26T13:48:42;98877.16;;;2.62;26.25
49943;BME280;36011;53.362;58.948;2024-02-26T13:51:48;98882.38;;;2.42;26.88
49943;BME280;36011;53.362;58.948;2024-02-26T13:54:54;98878.03;;;2.22;26.82
49943;BME280;36011;53.362;58.948;2024-02-26T13:58:02;98884.94;;;2.03;27.38
49943;BME280;36011;53.362;58.948;2024-02-26T14:01:08;98878.84;;;1.82;27.86
49943;BME280;36011;53.362;58.948;2024-02-26T14:04:10;98880.50;;;1.64;27.94
49943;BME280;36011;53.362;58.948;2024-02-26T14:07:15;98884.78;;;1.44;27.83
49943;BME280;36011;53.362;58.948;2024-02-26T14:10:20;98887.28;;;1.22;28.51
49943;BME280;36011;53.362;58.948;2024-02-26T14:13:22;98882.84;;;0.97;28.52
49943;BME280;36011;53.362;58.948;2024-02-26T14:16:23;98887.88;;;0.72;29.38
49943;BME280;36011;53.362;58.948;2024-02-26T14:19:29;98887.72;;;0.54;30.13
49943;BME280;36011;53.362;58.948;2024-02-26T14:22:30;98885.91;;;0.37;30.47
49943;BME280;36011;53.362;58.948;2024-02-26T14:25:40;98891.84;;;0.27;30.88
49943;BME280;36011;53.362;58.948;2024-02-26T14:28:45;98889.97;;;0.11;31.11
49943;BME280;36011;53.362;58.948;2024-02-26T14:31:53;98882.03;;;-0.08;31.57
49943;BME280;36011;53.362;58.948;2024-02-26T14:34:57;98879.22;;;-0.31;31.01
49943;BME280;36011;53.362;58.948;2024-02-26T14:38:01;98878.22;;;-0.43;32.18
49943;BME280;36011;53.362;58.948;2024-02-26T14:41:05;98879.72;;;-0.64;31.78
49943;BME280;36011;53.362;58.948;2024-02-26T14:44:12;98890.84;;;-0.70;32.61
49943;BME280;36011;53.362;58.948;2024-02-26T14:47:14;98881.22;;;-0.81;32.30
49943;BME280;36011;53.362;58.948;2024-02-26T14:50:20;98882.00;;;-0.85;32.15
49943;BME280;36011;53.362;58.948;2024-02-26T14:53:29;98880.16;;;-0.97;32.38
49943;BME280;36011;53.362;58.948;2024-02-26T14:56:35;98883.41;;;-1.10;33.30
49943;BME280;36011;53.362;58.948;2024-02-26T14:59:39;98877.16;;;-1.26;33.15
49943;BME280;36011;53.362;58.948;2024-02-26T15:02:40;98875.28;;;-1.37;33.34
49943;BME280;36011;53.362;58.948;2024-02-26T15:05:44;98869.09;;;-1.49;33.46
49943;BME280;36011;53.362;58.948;2024-02-26T15:08:48;98875.19;;;-1.43;33.85
49943;BME280;36011;53.362;58.948;2024-02-26T15:11:51;98870.78;;;-1.51;34.22
49943;BME280;36011;53.362;58.948;2024-02-26T15:14:53;98874.22;;;-1.52;34.41
49943;BME280;36011;53.362;58.948;2024-02-26T15:17:56;98859.16;;;-1.79;34.24
49943;BME280;36011;53.362;58.948;2024-02-26T15:21:01;98871.47;;;-1.63;33.98
49943;BME280;36011;53.362;58.948;2024-02-26T15:24:07;98874.00;;;-1.66;34.13
49943;BME280;36011;53.362;58.948;2024-02-26T15:27:10;98879.03;;;-1.74;33.88
49943;BME280;36011;53.362;58.948;2024-02-26T15:30:12;98874.38;;;-1.95;34.78
49943;BME280;36011;53.362;58.948;2024-02-26T15:33:22;98874.16;;;-2.07;34.96
49943;BME280;36011;53.362;58.948;2024-02-26T15:36:33;98870.41;;;-2.24;35.62
49943;BME280;36011;53.362;58.948;2024-02-26T15:39:34;98871.88;;;-2.39;35.45
49943;BME280;36011;53.362;58.948;2024-02-26T15:42:44;98873.31;;;-2.53;35.76
49943;BME280;36011;53.362;58.948;2024-02-26T15:45:51;98876.38;;;-2.73;35.85
49943;BME280;36011;53.362;58.948;2024-02-26T15:49:00;98871.69;;;-2.94;36.42
49943;BME280;36011;53.362;58.948;2024-02-26T15:52:04;98878.97;;;-3.13;36.37
49943;BME280;36011;53.362;58.948;2024-02-26T15:55:11;98870.03;;;-3.31;38.14
49943;BME280;36011;53.362;58.948;2024-02-26T15:58:15;98877.50;;;-3.40;37.21
49943;BME280;36011;53.362;58.948;2024-02-26T16:01:22;98874.75;;;-3.49;37.99
49943;BME280;36011;53.362;58.948;2024-02-26T16:04:26;98872.16;;;-3.49;38.23
49943;BME280;36011;53.362;58.948;2024-02-26T16:07:58;98874.69;;;-3.52;39.08
49943;BME280;36011;53.362;58.948;2024-02-26T16:11:01;98872.56;;;-3.69;38.61
49943;BME280;36011;53.362;58.948;2024-02-26T16:18:04;98875.53;;;-3.88;38.88
49943;BME280;36011;53.362;58.948;2024-02-26T16:21:06;98875.25;;;-4.00;39.45
49943;BME280;36011;53.362;58.948;2024-02-26T16:24:10;98871.44;;;-4.15;39.95